Abbott, Arkansas
Current Conditions -  °F | °C
As of 3:55 PM on Monday 20 Oct 2014 (Local Time) from KRKR Reporting Station
Scattered Clouds Scattered Clouds  
Wind Chill: 73°   Ceiling: Unl
Heat Index: 73°   Visibility: 10mi
Dew Point: 56°   Wind: 0mph
Humidity: 55%   Direction: NA
Pressure: 30.01"   Gusts: NA
Location:  35.0213°N, 94.2023°W
Report Text: KRKR 202055Z AUTO 00000KT 10SM SCT060 23/14 A3001 RMK AO2 T02300136
Loading
Personal Weather Stations






























Interactive Weather Map New forecast layout! Learn more

10-Day Weather Forecast

Advertisements
Track Severe Weather on mobile